Reuben Lasker — WTEG — position and weather

sailwx.info

Track history (hours):
 
Tides and Currents Weather Stations Pressure Air Temp Water Temp Dewpoint Dewpoint Depression Visibility Wind Speed Wind Dir Waves Ship Positions

Oceanographic research ship Reuben Lasker (United States)

Last reported at 2017-Sep-24 09:00 UTC. Time now 2017-Sep-25 11:51 UTC.
Position N 21°12' W 165°06'.

Length 64 m; draft 6.1 m.

Type: Other ship. MMSI: 369970573.

Wind from 080 at 9 knots

Barometer 1015.2 mb
Air temperature 26.8 ° C
Visibility: greater than 10.8 NM
Dewpoint 25.2 ° C
Water temperature 28.3 ° C

Date/timePositionNaut miles runAvg speedWind from/ knotsBaromVisibWave heightAir tempDewpointWater temp
2017-Sep-24 09:00N 21°12' W 165°06'   080 / 91015.210.8 26.825.228.3
2017-Sep-19 18:00N 17°18' W 157°36'17 5.3 080 / 131012.4 5.4 26.524.527.3
2017-Sep-19 14:47N 17°18' W 157°18'1312.9 070 / 211011.5 26.9 27.5
2017-Sep-19 13:47N 17°12' W 157°30'6 5.7 080 / 201011.4 27.1 27.6
2017-Sep-19 12:47N 17°12' W 157°36'8 8.3 080 / 191011.9 27.1 27.6
2017-Sep-19 11:47N 17°06' W 157°42'6 5.7 080 / 191012.4 27.4 27.7
2017-Sep-19 10:47N 17°06' W 157°48'1312.9 080 / 201013.1 27.5 27.8
2017-Sep-19 09:47N 17°00' W 158°00'810.6 080 / 191013.8 27.3 27.8
2017-Sep-19 09:00N 16°54' W 158°06'0 0.0 080 / 191012.610.8 26.325.127.5
2017-Sep-19 08:48N 16°54' W 158°06'6 5.7 080 / 201013.7 27.5 27.7
2017-Sep-19 07:48N 16°54' W 158°12'8 8.3 060 / 201014.0 27.3 27.9
2017-Sep-19 06:48N 16°48' W 158°18'6 5.7 070 / 201013.7 27.8 27.9
2017-Sep-19 05:48N 16°48' W 158°24'6 5.7 070 / 171013.5 27.7 28.0
2017-Sep-19 04:48N 16°48' W 158°18'6 5.7 080 / 141012.7 27.7 27.9
2017-Sep-19 03:48N 16°48' W 158°24'8 8.3 080 / 151012.1 27.6 27.9
2017-Sep-19 02:48N 16°42' W 158°18'1111.5 070 / 151012.1 27.9 27.9
2017-Sep-19 01:48N 16°42' W 158°06'1313.0 080 / 171011.9 28.1 27.9
2017-Sep-19 00:48N 16°36' W 157°54'18 9.1 070 / 151012.3 27.9 27.8
2017-Sep-18 22:48N 16°30' W 157°36'6 5.8 070 / 171013.3 27.8 27.7
2017-Sep-18 21:48N 16°30' W 157°30'1211.5 080 / 161013.7 27.5 27.7
2017-Sep-18 20:48N 16°30' W 157°18'8 8.3 070 / 181014.0 27.5 27.7
2017-Sep-18 19:48N 16°24' W 157°12'1211.5 060 / 201014.0 27.6 27.6
2017-Sep-18 18:48N 16°24' W 157°00'1316.2 080 / 191013.9 28.1 27.6
2017-Sep-18 18:00N 16°18' W 156°48'0 0.0 070 / 191012.210.8 26.823.827.4
2017-Sep-18 17:48N 16°18' W 156°48'1211.7 070 / 171013.5 27.8 27.6
2017-Sep-18 16:49N 16°18' W 156°36'0 0.0 080 / 181012.9 27.6 27.7
2017-Sep-18 15:49N 16°18' W 156°36'0 0.0 080 / 181012.2 27.5 27.7
2017-Sep-18 14:49N 16°18' W 156°36'6 5.8 080 / 181012.1 28.5 27.6
2017-Sep-18 13:49N 16°18' W 156°30'0 0.0 060 / 111012.3 27.8 27.7
2017-Sep-18 12:49N 16°18' W 156°30'6 5.8 060 / 161012.3 27.7 27.6
2017-Sep-18 11:49N 16°18' W 156°36'8 8.3 070 / 161012.7 27.6 27.7
2017-Sep-18 10:49N 16°12' W 156°42'0 0.0 070 / 211013.3 27.8 27.7
2017-Sep-18 09:49N 16°12' W 156°42'0 0.0 080 / 211013.8 27.8 27.7
2017-Sep-18 08:49N 16°12' W 156°42'0 0.0 070 / 201014.4 27.8 27.7
2017-Sep-18 07:49N 16°12' W 156°42'6 5.8 080 / 191014.7 30.5 27.7
2017-Sep-18 06:49N 16°12' W 156°36'6 6.0 080 / 201014.4 28.8 27.7
2017-Sep-18 05:49N 16°18' W 156°36'0 0.0 070 / 221013.7 27.4 27.8
2017-Sep-18 04:49N 16°18' W 156°36'8 8.3 050 / 261012.5 27.4 27.7
2017-Sep-18 03:49N 16°12' W 156°30'1211.5 050 / 191012.3 27.6 27.7
2017-Sep-18 02:49N 16°12' W 156°18'8 8.3 060 / 171012.2 28.0 27.8
2017-Sep-18 01:49N 16°06' W 156°12'1211.7 060 / 171012.0 28.2 28.1
2017-Sep-18 00:50N 16°06' W 156°00'2411.9 050 / 181011.9 28.0 28.2
2017-Sep-17 22:50N 16°00' W 155°36'6 5.8 060 / 171013.2 27.9 27.9
2017-Sep-17 21:50N 16°00' W 155°30'1313.0 050 / 171014.0 27.9 27.9
2017-Sep-17 20:50N 15°54' W 155°18'1211.5 070 / 171014.9 28.0 27.8
2017-Sep-17 19:50N 15°54' W 155°06'8 8.3 070 / 171015.1 27.7 27.7
2017-Sep-17 18:50N 15°48' W 155°00'1211.5 070 / 151015.3 27.9 27.8
2017-Sep-17 17:50N 15°48' W 154°48'1313.0 060 / 161014.9 27.6 27.7
2017-Sep-17 16:50N 15°42' W 154°36'0 0.0 060 / 171014.3 27.4 27.7
2017-Sep-17 15:50N 15°42' W 154°36'0 0.0 040 / 181013.5 27.3 27.7
2017-Sep-17 14:50N 15°42' W 154°36'8 8.3 050 / 221013.2 34.5 27.7
2017-Sep-17 13:50N 15°48' W 154°30'8 8.3 050 / 101012.8 27.2 27.8
2017-Sep-17 12:50N 15°54' W 154°36'8 8.3 080 / 151013.4 27.4 27.8
2017-Sep-17 11:50N 16°00' W 154°30'6 6.0 070 / 161013.9 27.4 27.7
2017-Sep-17 10:50N 16°06' W 154°30'6 6.1 070 / 141014.5 27.4 27.6
2017-Sep-17 09:51N 16°12' W 154°30'8 8.3 060 / 161015.0 27.4 27.6
2017-Sep-17 08:51N 16°18' W 154°24'6 6.0 080 / 181015.5 27.7 27.6
2017-Sep-17 07:51N 16°24' W 154°24'0 0.0 070 / 171015.9 27.8 27.6
2017-Sep-17 06:51N 16°24' W 154°24'6 6.0 070 / 151015.5 27.8 27.6
2017-Sep-17 05:51N 16°30' W 154°24'0 0.0 060 / 201014.7 27.7 27.6
2017-Sep-17 04:51N 16°30' W 154°24'0 0.0 060 / 191014.0 29.6 27.6
2017-Sep-17 03:51N 16°30' W 154°24'1211.5 050 / 181012.8 27.9 27.6
2017-Sep-17 02:51N 16°30' W 154°36'8 8.3 050 / 181012.6 27.6 27.6
2017-Sep-17 01:51N 16°36' W 154°42'1111.5 050 / 181012.3 27.7 27.9
2017-Sep-17 00:51N 16°36' W 154°54'18 9.1 040 / 251011.9 27.8 27.9
2017-Sep-16 22:51N 16°42' W 155°12'6 5.7 050 / 211013.1 27.9 28.0
2017-Sep-16 21:51N 16°42' W 155°18'1313.0 070 / 231014.2 27.9 28.1
2017-Sep-16 20:51N 16°48' W 155°30'6 5.7 060 / 191014.5 28.0 28.1
2017-Sep-16 19:51N 16°48' W 155°36'1313.2 050 / 231014.8 28.0 28.1
2017-Sep-16 18:52N 16°54' W 155°48'6 5.7 050 / 221014.3 28.0 28.0
2017-Sep-16 17:52N 16°54' W 155°54'1111.5 050 / 251013.9 27.9 28.0
2017-Sep-16 16:52N 16°54' W 156°06'8 8.3 050 / 231013.3 27.8 27.8
2017-Sep-16 15:52N 17°00' W 156°12'0 0.0 060 / 221013.5 27.8 27.8
2017-Sep-16 14:52N 17°00' W 156°12'8 8.3 070 / 191013.1 28.6 27.8
2017-Sep-16 13:52N 17°06' W 156°06'6 5.7 080 / 151012.8 27.9 27.8
2017-Sep-16 12:52N 17°06' W 156°00'6 6.0 070 / 141013.1 28.2 27.8
2017-Sep-16 11:52N 17°12' W 156°00'8 8.3 070 / 171013.4 29.0 27.7
2017-Sep-16 10:52N 17°18' W 155°54'6 5.7 070 / 151014.2 28.8 27.7
2017-Sep-16 09:52N 17°18' W 155°48'6 6.0 070 / 121014.8 28.5 27.7
2017-Sep-16 08:52N 17°24' W 155°48'8 8.3 080 / 121015.2 28.3 27.7
2017-Sep-16 07:52N 17°30' W 155°42'8 8.3 080 / 111015.4 28.3 27.7
2017-Sep-16 06:52N 17°36' W 155°36'0 0.0 090 / 111015.2 28.3 27.7
2017-Sep-16 05:53N 17°36' W 155°36'0 0.0 060 / 171014.3 27.9 27.8
2017-Sep-16 04:53N 17°36' W 155°36'0 0.0 060 / 141013.8 29.1 27.8
2017-Sep-16 03:53N 17°36' W 155°36'1312.9 050 / 151012.7 28.0 27.8
2017-Sep-16 02:53N 17°42' W 155°48'1111.4 060 / 181012.3 27.8 27.8
2017-Sep-16 01:53N 17°42' W 156°00'8 8.3 050 / 161011.8 27.9 27.8
2017-Sep-16 00:53N 17°48' W 156°06'17 8.6 070 / 211011.8 27.9 27.8
2017-Sep-15 22:53N 17°48' W 156°24'8 8.3 070 / 201012.9 27.8 27.7
2017-Sep-15 21:53N 17°54' W 156°30'1111.4 080 / 191013.4 27.8 27.7
2017-Sep-15 20:53N 17°54' W 156°42'1111.4 070 / 171013.7 27.7 27.7
2017-Sep-15 19:53N 17°54' W 156°54'1313.1 060 / 191013.9 27.7 27.7
2017-Sep-15 18:54N 18°00' W 157°06'6 5.7 070 / 181013.9 27.7 27.7
2017-Sep-15 17:54N 18°00' W 157°12'1312.9 080 / 161013.7 27.7 27.7
2017-Sep-15 16:54N 18°06' W 157°24'8 8.3 090 / 171013.0 27.5 27.7
2017-Sep-15 15:54N 18°12' W 157°30'1111.4 090 / 151012.7 27.3 27.8
2017-Sep-15 14:54N 18°12' W 157°42'8 8.3 090 / 141012.0 27.6 27.8
2017-Sep-15 13:54N 18°18' W 157°48'1716.5 100 / 121011.7 27.3 27.9
2017-Sep-15 12:54N 18°30' W 158°00'8 8.3 110 / 121011.9 27.6 28.7
2017-Sep-15 11:54N 18°36' W 158°06'6 5.7 090 / 111012.3 27.7 28.7
2017-Sep-15 10:54N 18°36' W 158°12'0 0.0 100 / 111013.0 27.7 28.4
2017-Sep-15 09:54N 18°36' W 158°12'0 0.0 110 / 101013.5 28.1 28.4
2017-Sep-15 08:54N 18°36' W 158°12'8 8.3 100 / 91013.8 28.0 28.5
2017-Sep-15 07:54N 18°42' W 158°06'0 0.0 110 / 81014.1 28.2 28.9
2017-Sep-15 06:54N 18°42' W 158°06'6 5.7 110 / 71013.6 28.2 28.8
2017-Sep-15 05:54N 18°42' W 158°12'0 0.0 130 / 61013.1 28.3 28.5
2017-Sep-15 04:55N 18°42' W 158°12'1111.4 090 / 61012.4 28.2 28.6
2017-Sep-15 03:55N 18°42' W 158°24'0 0.0 080 / 81011.6 28.3 28.6
2017-Sep-15 02:55N 18°42' W 158°24'6 5.7 100 / 101011.4 28.4 28.8
2017-Sep-15 01:55N 18°42' W 158°18'6 5.7 100 / 91011.4 28.5 28.7
2017-Sep-15 00:55N 18°42' W 158°12'2311.4 100 / 91011.6 28.3 28.9
2017-Sep-14 22:55N 18°42' W 157°48'1111.4 100 / 101012.7 28.2 28.9
2017-Sep-14 21:55N 18°42' W 157°36'1111.4 100 / 101013.3 28.0 28.9
2017-Sep-14 20:55N 18°42' W 157°24'6 5.7 100 / 101013.9 27.9 27.9
2017-Sep-14 19:55N 18°42' W 157°18'1111.4 100 / 111014.0 28.0 27.9
2017-Sep-14 18:55N 18°42' W 157°06'1111.4 100 / 111013.8 27.9 27.8
2017-Sep-14 17:55N 18°42' W 156°54'1312.8 100 / 121013.4 28.1 28.0
2017-Sep-14 16:55N 18°48' W 156°42'6 5.7 110 / 111012.8 27.6 28.1
2017-Sep-14 15:55N 18°48' W 156°36'1111.4 100 / 101012.6 27.6 27.9
2017-Sep-14 14:55N 18°48' W 156°24'1111.6 110 / 131012.1 27.5 27.9
2017-Sep-14 13:56N 18°48' W 156°12'1111.4 090 / 111012.0 27.5 28.0
2017-Sep-14 12:56N 18°48' W 156°00'1111.4 090 / 131011.9 27.3 28.5
2017-Sep-14 11:56N 18°48' W 155°48'1111.4 070 / 101012.3 27.2 27.8
2017-Sep-14 10:56N 18°48' W 155°36'8 8.3 070 / 111012.6 27.3 27.6
2017-Sep-14 09:56N 18°54' W 155°30'   070 / 101013.2 27.5 27.7
Track history (hours):
 
Tides and Currents Weather Stations Pressure Air Temp Water Temp Dewpoint Dewpoint Depression Visibility Wind Speed Wind Dir Waves Ship Positions

Oceanographic research ship Reuben Lasker (United States)

Last reported at 2017-Sep-24 09:00 UTC. Time now 2017-Sep-25 11:51 UTC.
Position N 21°12' W 165°06'.

Length 64 m; draft 6.1 m.

Type: Other ship. MMSI: 369970573.

Wind from 080 at 9 knots

Barometer 1015.2 mb
Air temperature 26.8 ° C
Visibility: greater than 10.8 NM
Dewpoint 25.2 ° C
Water temperature 28.3 ° C

Date/timePositionNaut miles runAvg speedWind from/ knotsBaromVisibWave heightAir tempDewpointWater temp
2017-Sep-24 09:00N 21°12' W 165°06'   080 / 91015.210.8 26.825.228.3
2017-Sep-19 18:00N 17°18' W 157°36'17 5.3 080 / 131012.4 5.4 26.524.527.3
2017-Sep-19 14:47N 17°18' W 157°18'1312.9 070 / 211011.5 26.9 27.5
2017-Sep-19 13:47N 17°12' W 157°30'6 5.7 080 / 201011.4 27.1 27.6
2017-Sep-19 12:47N 17°12' W 157°36'8 8.3 080 / 191011.9 27.1 27.6
2017-Sep-19 11:47N 17°06' W 157°42'6 5.7 080 / 191012.4 27.4 27.7
2017-Sep-19 10:47N 17°06' W 157°48'1312.9 080 / 201013.1 27.5 27.8
2017-Sep-19 09:47N 17°00' W 158°00'810.6 080 / 191013.8 27.3 27.8
2017-Sep-19 09:00N 16°54' W 158°06'0 0.0 080 / 191012.610.8 26.325.127.5
2017-Sep-19 08:48N 16°54' W 158°06'6 5.7 080 / 201013.7 27.5 27.7
2017-Sep-19 07:48N 16°54' W 158°12'8 8.3 060 / 201014.0 27.3 27.9
2017-Sep-19 06:48N 16°48' W 158°18'6 5.7 070 / 201013.7 27.8 27.9
2017-Sep-19 05:48N 16°48' W 158°24'6 5.7 070 / 171013.5 27.7 28.0
2017-Sep-19 04:48N 16°48' W 158°18'6 5.7 080 / 141012.7 27.7 27.9
2017-Sep-19 03:48N 16°48' W 158°24'8 8.3 080 / 151012.1 27.6 27.9
2017-Sep-19 02:48N 16°42' W 158°18'1111.5 070 / 151012.1 27.9 27.9
2017-Sep-19 01:48N 16°42' W 158°06'1313.0 080 / 171011.9 28.1 27.9
2017-Sep-19 00:48N 16°36' W 157°54'18 9.1 070 / 151012.3 27.9 27.8
2017-Sep-18 22:48N 16°30' W 157°36'6 5.8 070 / 171013.3 27.8 27.7
2017-Sep-18 21:48N 16°30' W 157°30'1211.5 080 / 161013.7 27.5 27.7
2017-Sep-18 20:48N 16°30' W 157°18'8 8.3 070 / 181014.0 27.5 27.7
2017-Sep-18 19:48N 16°24' W 157°12'1211.5 060 / 201014.0 27.6 27.6
2017-Sep-18 18:48N 16°24' W 157°00'1316.2 080 / 191013.9 28.1 27.6
2017-Sep-18 18:00N 16°18' W 156°48'0 0.0 070 / 191012.210.8 26.823.827.4
2017-Sep-18 17:48N 16°18' W 156°48'1211.7 070 / 171013.5 27.8 27.6
2017-Sep-18 16:49N 16°18' W 156°36'0 0.0 080 / 181012.9 27.6 27.7
2017-Sep-18 15:49N 16°18' W 156°36'0 0.0 080 / 181012.2 27.5 27.7
2017-Sep-18 14:49N 16°18' W 156°36'6 5.8 080 / 181012.1 28.5 27.6
2017-Sep-18 13:49N 16°18' W 156°30'0 0.0 060 / 111012.3 27.8 27.7
2017-Sep-18 12:49N 16°18' W 156°30'6 5.8 060 / 161012.3 27.7 27.6
2017-Sep-18 11:49N 16°18' W 156°36'8 8.3 070 / 161012.7 27.6 27.7
2017-Sep-18 10:49N 16°12' W 156°42'0 0.0 070 / 211013.3 27.8 27.7
2017-Sep-18 09:49N 16°12' W 156°42'0 0.0 080 / 211013.8 27.8 27.7
2017-Sep-18 08:49N 16°12' W 156°42'0 0.0 070 / 201014.4 27.8 27.7
2017-Sep-18 07:49N 16°12' W 156°42'6 5.8 080 / 191014.7 30.5 27.7
2017-Sep-18 06:49N 16°12' W 156°36'6 6.0 080 / 201014.4 28.8 27.7
2017-Sep-18 05:49N 16°18' W 156°36'0 0.0 070 / 221013.7 27.4 27.8
2017-Sep-18 04:49N 16°18' W 156°36'8 8.3 050 / 261012.5 27.4 27.7
2017-Sep-18 03:49N 16°12' W 156°30'1211.5 050 / 191012.3 27.6 27.7
2017-Sep-18 02:49N 16°12' W 156°18'8 8.3 060 / 171012.2 28.0 27.8
2017-Sep-18 01:49N 16°06' W 156°12'1211.7 060 / 171012.0 28.2 28.1
2017-Sep-18 00:50N 16°06' W 156°00'2411.9 050 / 181011.9 28.0 28.2
2017-Sep-17 22:50N 16°00' W 155°36'6 5.8 060 / 171013.2 27.9 27.9
2017-Sep-17 21:50N 16°00' W 155°30'1313.0 050 / 171014.0 27.9 27.9
2017-Sep-17 20:50N 15°54' W 155°18'1211.5 070 / 171014.9 28.0 27.8
2017-Sep-17 19:50N 15°54' W 155°06'8 8.3 070 / 171015.1 27.7 27.7
2017-Sep-17 18:50N 15°48' W 155°00'1211.5 070 / 151015.3 27.9 27.8
2017-Sep-17 17:50N 15°48' W 154°48'1313.0 060 / 161014.9 27.6 27.7
2017-Sep-17 16:50N 15°42' W 154°36'0 0.0 060 / 171014.3 27.4 27.7
2017-Sep-17 15:50N 15°42' W 154°36'0 0.0 040 / 181013.5 27.3 27.7
2017-Sep-17 14:50N 15°42' W 154°36'8 8.3 050 / 221013.2 34.5 27.7
2017-Sep-17 13:50N 15°48' W 154°30'8 8.3 050 / 101012.8 27.2 27.8
2017-Sep-17 12:50N 15°54' W 154°36'8 8.3 080 / 151013.4 27.4 27.8
2017-Sep-17 11:50N 16°00' W 154°30'6 6.0 070 / 161013.9 27.4 27.7
2017-Sep-17 10:50N 16°06' W 154°30'6 6.1 070 / 141014.5 27.4 27.6
2017-Sep-17 09:51N 16°12' W 154°30'8 8.3 060 / 161015.0 27.4 27.6
2017-Sep-17 08:51N 16°18' W 154°24'6 6.0 080 / 181015.5 27.7 27.6
2017-Sep-17 07:51N 16°24' W 154°24'0 0.0 070 / 171015.9 27.8 27.6
2017-Sep-17 06:51N 16°24' W 154°24'6 6.0 070 / 151015.5 27.8 27.6
2017-Sep-17 05:51N 16°30' W 154°24'0 0.0 060 / 201014.7 27.7 27.6
2017-Sep-17 04:51N 16°30' W 154°24'0 0.0 060 / 191014.0 29.6 27.6
2017-Sep-17 03:51N 16°30' W 154°24'1211.5 050 / 181012.8 27.9 27.6
2017-Sep-17 02:51N 16°30' W 154°36'8 8.3 050 / 181012.6 27.6 27.6
2017-Sep-17 01:51N 16°36' W 154°42'1111.5 050 / 181012.3 27.7 27.9
2017-Sep-17 00:51N 16°36' W 154°54'18 9.1 040 / 251011.9 27.8 27.9
2017-Sep-16 22:51N 16°42' W 155°12'6 5.7 050 / 211013.1 27.9 28.0
2017-Sep-16 21:51N 16°42' W 155°18'1313.0 070 / 231014.2 27.9 28.1
2017-Sep-16 20:51N 16°48' W 155°30'6 5.7 060 / 191014.5 28.0 28.1
2017-Sep-16 19:51N 16°48' W 155°36'1313.2 050 / 231014.8 28.0 28.1
2017-Sep-16 18:52N 16°54' W 155°48'6 5.7 050 / 221014.3 28.0 28.0
2017-Sep-16 17:52N 16°54' W 155°54'1111.5 050 / 251013.9 27.9 28.0
2017-Sep-16 16:52N 16°54' W 156°06'8 8.3 050 / 231013.3 27.8 27.8
2017-Sep-16 15:52N 17°00' W 156°12'0 0.0 060 / 221013.5 27.8 27.8
2017-Sep-16 14:52N 17°00' W 156°12'8 8.3 070 / 191013.1 28.6 27.8
2017-Sep-16 13:52N 17°06' W 156°06'6 5.7 080 / 151012.8 27.9 27.8
2017-Sep-16 12:52N 17°06' W 156°00'6 6.0 070 / 141013.1 28.2 27.8
2017-Sep-16 11:52N 17°12' W 156°00'8 8.3 070 / 171013.4 29.0 27.7
2017-Sep-16 10:52N 17°18' W 155°54'6 5.7 070 / 151014.2 28.8 27.7
2017-Sep-16 09:52N 17°18' W 155°48'6 6.0 070 / 121014.8 28.5 27.7
2017-Sep-16 08:52N 17°24' W 155°48'8 8.3 080 / 121015.2 28.3 27.7
2017-Sep-16 07:52N 17°30' W 155°42'8 8.3 080 / 111015.4 28.3 27.7
2017-Sep-16 06:52N 17°36' W 155°36'0 0.0 090 / 111015.2 28.3 27.7
2017-Sep-16 05:53N 17°36' W 155°36'0 0.0 060 / 171014.3 27.9 27.8
2017-Sep-16 04:53N 17°36' W 155°36'0 0.0 060 / 141013.8 29.1 27.8
2017-Sep-16 03:53N 17°36' W 155°36'1312.9 050 / 151012.7 28.0 27.8
2017-Sep-16 02:53N 17°42' W 155°48'1111.4 060 / 181012.3 27.8 27.8
2017-Sep-16 01:53N 17°42' W 156°00'8 8.3 050 / 161011.8 27.9 27.8
2017-Sep-16 00:53N 17°48' W 156°06'17 8.6 070 / 211011.8 27.9 27.8
2017-Sep-15 22:53N 17°48' W 156°24'8 8.3 070 / 201012.9 27.8 27.7
2017-Sep-15 21:53N 17°54' W 156°30'1111.4 080 / 191013.4 27.8 27.7
2017-Sep-15 20:53N 17°54' W 156°42'1111.4 070 / 171013.7 27.7 27.7
2017-Sep-15 19:53N 17°54' W 156°54'1313.1 060 / 191013.9 27.7 27.7
2017-Sep-15 18:54N 18°00' W 157°06'6 5.7 070 / 181013.9 27.7 27.7
2017-Sep-15 17:54N 18°00' W 157°12'1312.9 080 / 161013.7 27.7 27.7
2017-Sep-15 16:54N 18°06' W 157°24'8 8.3 090 / 171013.0 27.5 27.7
2017-Sep-15 15:54N 18°12' W 157°30'1111.4 090 / 151012.7 27.3 27.8
2017-Sep-15 14:54N 18°12' W 157°42'8 8.3 090 / 141012.0 27.6 27.8
2017-Sep-15 13:54N 18°18' W 157°48'1716.5 100 / 121011.7 27.3 27.9
2017-Sep-15 12:54N 18°30' W 158°00'8 8.3 110 / 121011.9 27.6 28.7
2017-Sep-15 11:54N 18°36' W 158°06'6 5.7 090 / 111012.3 27.7 28.7
2017-Sep-15 10:54N 18°36' W 158°12'0 0.0 100 / 111013.0 27.7 28.4
2017-Sep-15 09:54N 18°36' W 158°12'0 0.0 110 / 101013.5 28.1 28.4
2017-Sep-15 08:54N 18°36' W 158°12'8 8.3 100 / 91013.8 28.0 28.5
2017-Sep-15 07:54N 18°42' W 158°06'0 0.0 110 / 81014.1 28.2 28.9
2017-Sep-15 06:54N 18°42' W 158°06'6 5.7 110 / 71013.6 28.2 28.8
2017-Sep-15 05:54N 18°42' W 158°12'0 0.0 130 / 61013.1 28.3 28.5
2017-Sep-15 04:55N 18°42' W 158°12'1111.4 090 / 61012.4 28.2 28.6
2017-Sep-15 03:55N 18°42' W 158°24'0 0.0 080 / 81011.6 28.3 28.6
2017-Sep-15 02:55N 18°42' W 158°24'6 5.7 100 / 101011.4 28.4 28.8
2017-Sep-15 01:55N 18°42' W 158°18'6 5.7 100 / 91011.4 28.5 28.7
2017-Sep-15 00:55N 18°42' W 158°12'2311.4 100 / 91011.6 28.3 28.9
2017-Sep-14 22:55N 18°42' W 157°48'1111.4 100 / 101012.7 28.2 28.9
2017-Sep-14 21:55N 18°42' W 157°36'1111.4 100 / 101013.3 28.0 28.9
2017-Sep-14 20:55N 18°42' W 157°24'6 5.7 100 / 101013.9 27.9 27.9
2017-Sep-14 19:55N 18°42' W 157°18'1111.4 100 / 111014.0 28.0 27.9
2017-Sep-14 18:55N 18°42' W 157°06'1111.4 100 / 111013.8 27.9 27.8
2017-Sep-14 17:55N 18°42' W 156°54'1312.8 100 / 121013.4 28.1 28.0
2017-Sep-14 16:55N 18°48' W 156°42'6 5.7 110 / 111012.8 27.6 28.1
2017-Sep-14 15:55N 18°48' W 156°36'1111.4 100 / 101012.6 27.6 27.9
2017-Sep-14 14:55N 18°48' W 156°24'1111.6 110 / 131012.1 27.5 27.9
2017-Sep-14 13:56N 18°48' W 156°12'1111.4 090 / 111012.0 27.5 28.0
2017-Sep-14 12:56N 18°48' W 156°00'1111.4 090 / 131011.9 27.3 28.5
2017-Sep-14 11:56N 18°48' W 155°48'1111.4 070 / 101012.3 27.2 27.8
2017-Sep-14 10:56N 18°48' W 155°36'8 8.3 070 / 111012.6 27.3 27.6
2017-Sep-14 09:56N 18°54' W 155°30'   070 / 101013.2 27.5 27.7

Dump ship's entire track history